Time;durP1;ratioP1;P1;durP2;ratioP2;P2;SDS_P1;SDS_P2;PMS_P1;PMS_P2;Temp;Humidity;BMP_temperature;BMP_pressure;BME280_temperature;BME280_humidity;BME280_pressure;Samples;Min_cycle;Max_cycle;Signal;HPM_P1;HPM_P2
2023/01/26 00:01:08;;;;;;;82.47;33.85;;;0.70;99.90;;;;;;5097566;28;20614;-78
2023/01/26 00:04:01;;;;;;;79.95;37.42;;;0.80;99.90;;;;;;5097065;28;20204;-78
2023/01/26 00:06:27;;;;;;;90.50;37.88;;;0.80;99.90;;;;;;5091186;28;20264;-79
2023/01/26 00:12:18;;;;;;;73.82;32.45;;;0.80;99.90;;;;;;5098723;28;20553;-77
2023/01/26 00:18:07;;;;;;;82.95;34.05;;;0.70;99.90;;;;;;5091286;28;20193;-79
2023/01/26 00:21:12;;;;;;;75.57;34.42;;;0.60;99.90;;;;;;5109438;28;20254;-77
2023/01/26 00:23:39;;;;;;;75.68;35.42;;;0.60;99.90;;;;;;5084669;28;20301;-79
2023/01/26 00:26:07;;;;;;;75.15;36.10;;;0.60;99.90;;;;;;5081925;28;20258;-80
2023/01/26 00:28:37;;;;;;;90.38;35.83;;;0.70;99.90;;;;;;5097486;28;20199;-79
2023/01/26 00:31:05;;;;;;;74.43;33.47;;;0.80;99.90;;;;;;5097290;28;20241;-79
2023/01/26 00:33:32;;;;;;;80.43;32.92;;;0.60;99.90;;;;;;5086453;28;20668;-78
2023/01/26 00:35:59;;;;;;;78.90;35.55;;;0.60;99.90;;;;;;5096655;28;20226;-77
2023/01/26 00:38:26;;;;;;;90.95;36.45;;;0.60;99.90;;;;;;5099810;28;20215;-78
2023/01/26 00:41:02;;;;;;;81.47;34.90;;;0.60;99.90;;;;;;5102028;28;20289;-79
2023/01/26 00:43:29;;;;;;;77.70;36.22;;;0.70;99.90;;;;;;5103290;28;20228;-77
2023/01/26 00:45:58;;;;;;;69.15;34.45;;;0.60;99.90;;;;;;5108997;28;20226;-79
2023/01/26 00:48:25;;;;;;;79.25;36.55;;;0.70;99.90;;;;;;5100508;28;20279;-77
2023/01/26 00:50:51;;;;;;;88.15;37.35;;;0.70;99.90;;;;;;5102864;28;20281;-76
2023/01/26 00:53:18;;;;;;;92.80;35.42;;;0.60;99.90;;;;;;5089088;28;20225;-78
2023/01/26 00:55:54;;;;;;;76.57;35.03;;;0.60;99.90;;;;;;5098628;28;20223;-79
2023/01/26 00:58:21;;;;;;;88.05;38.75;;;0.60;99.90;;;;;;5095303;28;20217;-79
2023/01/26 01:00:48;;;;;;;85.55;37.35;;;0.60;99.90;;;;;;5083254;28;20248;-79
2023/01/26 01:03:17;;;;;;;88.70;38.90;;;0.40;99.90;;;;;;5095843;28;20293;-78
2023/01/26 01:05:44;;;;;;;89.28;37.33;;;0.60;99.90;;;;;;5094669;28;20223;-78
2023/01/26 01:08:13;;;;;;;90.80;37.55;;;0.60;99.90;;;;;;5094877;28;20300;-77
2023/01/26 01:10:39;;;;;;;89.20;37.25;;;0.60;99.90;;;;;;5095678;28;20230;-76
2023/01/26 01:13:18;;;;;;;91.72;37.80;;;0.60;99.90;;;;;;5095785;28;20206;-77
2023/01/26 01:15:44;;;;;;;98.63;41.53;;;0.50;99.90;;;;;;5093315;28;20236;-77
2023/01/26 01:18:35;;;;;;;86.38;34.97;;;0.50;99.90;;;;;;5093649;28;20237;-77
2023/01/26 01:21:06;;;;;;;87.97;37.13;;;0.50;99.90;;;;;;5094136;28;20198;-77
2023/01/26 01:23:33;;;;;;;107.03;40.65;;;0.50;99.90;;;;;;5088199;28;20364;-78
2023/01/26 01:26:01;;;;;;;91.97;35.10;;;0.70;99.90;;;;;;5095373;28;20222;-77
2023/01/26 01:28:28;;;;;;;88.80;37.15;;;0.60;99.90;;;;;;5094726;28;20203;-77
2023/01/26 01:30:55;;;;;;;105.35;40.53;;;0.60;99.90;;;;;;5094059;28;20706;-77
2023/01/26 01:33:22;;;;;;;96.55;38.97;;;0.50;99.90;;;;;;5095810;28;20234;-79
2023/01/26 01:35:58;;;;;;;105.85;38.25;;;0.60;99.90;;;;;;5092217;28;20222;-80
2023/01/26 01:38:25;;;;;;;94.28;39.58;;;0.60;99.90;;;;;;5093592;28;20540;-78
2023/01/26 01:40:52;;;;;;;102.30;39.55;;;0.50;99.90;;;;;;5094832;28;20624;-79
2023/01/26 01:43:19;;;;;;;117.55;41.00;;;0.50;99.90;;;;;;5095151;28;20208;-80
2023/01/26 01:45:53;;;;;;;102.22;35.67;;;0.50;99.90;;;;;;5095011;28;20626;-79
2023/01/26 01:48:24;;;;;;;110.05;40.33;;;0.60;99.90;;;;;;5094907;28;20207;-77
2023/01/26 01:51:18;;;;;;;113.15;40.28;;;0.60;99.90;;;;;;5094711;28;20237;-78
2023/01/26 01:53:50;;;;;;;91.43;35.95;;;0.50;99.90;;;;;;5094176;28;20215;-78
2023/01/26 01:56:21;;;;;;;129.38;37.92;;;0.50;99.90;;;;;;5094770;28;20265;-76
2023/01/26 01:58:53;;;;;;;93.72;38.97;;;0.40;99.90;;;;;;5093657;28;20230;-76
2023/01/26 02:01:21;;;;;;;103.90;37.03;;;0.50;99.90;;;;;;5087739;28;20268;-77
2023/01/26 02:03:51;;;;;;;108.65;39.03;;;0.40;99.90;;;;;;5094787;28;20272;-77
2023/01/26 02:06:23;;;;;;;129.05;41.30;;;0.50;99.90;;;;;;5095153;28;20233;-77
2023/01/26 02:08:53;;;;;;;113.57;39.80;;;0.40;99.90;;;;;;5095016;28;20259;-78
2023/01/26 02:11:26;;;;;;;102.72;39.35;;;0.40;99.90;;;;;;5087556;28;20272;-78
2023/01/26 02:13:54;;;;;;;117.82;41.60;;;0.50;99.90;;;;;;5082476;28;20200;-77
2023/01/26 02:16:38;;;;;;;94.18;35.33;;;0.50;99.90;;;;;;5093527;28;20699;-78
2023/01/26 02:19:11;;;;;;;109.90;40.17;;;0.50;99.90;;;;;;5091313;28;20202;-79
2023/01/26 02:21:40;;;;;;;124.53;40.08;;;0.50;99.90;;;;;;5093925;28;20252;-78
2023/01/26 02:24:25;;;;;;;132.57;40.40;;;0.50;99.90;;;;;;5095140;28;20268;-79
2023/01/26 02:26:54;;;;;;;111.75;36.90;;;0.50;99.90;;;;;;5094617;28;20250;-79
2023/01/26 02:29:28;;;;;;;113.15;40.80;;;0.50;99.90;;;;;;5094854;28;20191;-80
2023/01/26 02:31:55;;;;;;;109.38;36.45;;;0.50;99.90;;;;;;5095019;28;20282;-79
2023/01/26 02:34:27;;;;;;;105.50;40.10;;;0.50;99.90;;;;;;5094736;28;20206;-78
2023/01/26 02:36:58;;;;;;;109.97;37.75;;;0.50;99.90;;;;;;5095351;28;20778;-77
2023/01/26 02:39:40;;;;;;;107.60;42.35;;;0.50;99.90;;;;;;5090859;28;20243;-78
2023/01/26 02:44:53;;;;;;;126.95;43.10;;;0.50;99.90;;;;;;5090422;28;20240;-78
2023/01/26 02:47:27;;;;;;;118.82;41.33;;;0.50;99.90;;;;;;5093282;28;20239;-78
2023/01/26 02:49:54;;;;;;;124.00;42.08;;;0.50;99.90;;;;;;5093878;28;20205;-77
2023/01/26 02:52:24;;;;;;;127.97;42.65;;;0.50;99.90;;;;;;5092907;28;20206;-79
2023/01/26 02:57:38;;;;;;;125.35;40.63;;;0.60;99.90;;;;;;5093566;28;20197;-79
2023/01/26 03:00:07;;;;;;;124.35;37.83;;;0.60;99.90;;;;;;5084646;28;20322;-79
2023/01/26 03:02:34;;;;;;;147.32;44.35;;;0.60;99.90;;;;;;5093495;28;20199;-80
2023/01/26 03:05:03;;;;;;;117.57;38.20;;;0.60;99.90;;;;;;5093413;28;20643;-81
2023/01/26 03:07:30;;;;;;;136.40;45.90;;;0.70;99.90;;;;;;5094524;28;20221;-77
2023/01/26 03:09:58;;;;;;;120.53;39.97;;;0.60;99.90;;;;;;5093933;28;20696;-81
2023/01/26 03:12:25;;;;;;;141.05;45.35;;;0.60;99.90;;;;;;5094455;28;20247;-79
2023/01/26 03:17:34;;;;;;;146.68;40.63;;;0.60;99.90;;;;;;5103184;28;20263;-78
2023/01/26 03:28:21;;;;;;;109.35;40.33;;;0.50;99.90;;;;;;5088984;28;20327;-80
2023/01/26 03:30:49;;;;;;;108.43;41.83;;;0.60;99.90;;;;;;5093626;28;20204;-76
2023/01/26 03:33:17;;;;;;;138.10;39.72;;;0.70;99.90;;;;;;5146881;22;20206;-83
2023/01/26 03:35:44;;;;;;;119.38;41.08;;;0.70;99.90;;;;;;5119869;28;20205;-83
2023/01/26 03:38:11;;;;;;;121.93;39.10;;;0.80;99.90;;;;;;5121393;28;20217;-83
2023/01/26 03:57:07;;;;;;;124.57;39.95;;;0.70;99.90;;;;;;5132873;28;20208;-82
2023/01/26 03:59:40;;;;;;;134.30;44.10;;;0.70;99.90;;;;;;5132779;28;20225;-83
2023/01/26 04:10:25;;;;;;;122.30;38.42;;;0.80;99.90;;;;;;5133681;28;20224;-81
2023/01/26 04:23:55;;;;;;;109.10;38.33;;;0.90;99.90;;;;;;5132250;27;20246;-82
2023/01/26 04:26:22;;;;;;;117.57;37.53;;;0.90;99.90;;;;;;5133674;27;20210;-80
2023/01/26 04:28:49;;;;;;;118.57;36.95;;;0.90;99.90;;;;;;5134551;27;20623;-82
2023/01/26 04:31:16;;;;;;;108.00;38.08;;;0.90;99.90;;;;;;5136534;27;20575;-82
2023/01/26 04:33:44;;;;;;;114.82;35.67;;;0.90;99.90;;;;;;5140919;27;20227;-82
2023/01/26 04:36:11;;;;;;;122.10;42.97;;;0.90;99.90;;;;;;5137912;27;20272;-82
2023/01/26 04:38:38;;;;;;;115.28;37.75;;;1.00;99.90;;;;;;5141488;28;20201;-83
2023/01/26 04:41:05;;;;;;;119.63;41.67;;;1.00;99.90;;;;;;5134534;27;20317;-81
2023/01/26 04:43:32;;;;;;;115.57;42.42;;;1.00;99.90;;;;;;5137060;27;20255;-81
2023/01/26 04:46:00;;;;;;;112.15;34.28;;;1.00;99.90;;;;;;5131330;27;20197;-82
2023/01/26 04:48:27;;;;;;;119.75;37.22;;;1.00;99.90;;;;;;5130024;27;20291;-81
2023/01/26 04:50:56;;;;;;;117.28;37.78;;;1.10;99.90;;;;;;5128695;27;20242;-82
2023/01/26 04:53:24;;;;;;;109.88;38.78;;;1.10;99.90;;;;;;5135524;27;20258;-82
2023/01/26 04:55:51;;;;;;;108.88;37.72;;;1.10;99.90;;;;;;5128208;27;20209;-81
2023/01/26 04:58:18;;;;;;;127.68;37.63;;;1.20;99.90;;;;;;5129718;27;20206;-82
2023/01/26 05:00:49;;;;;;;115.18;38.08;;;1.10;99.90;;;;;;5135134;27;20225;-82
2023/01/26 05:03:16;;;;;;;111.93;37.78;;;1.20;99.90;;;;;;5132006;27;20217;-82
2023/01/26 05:05:43;;;;;;;108.82;34.65;;;1.20;99.90;;;;;;5128846;27;20246;-82
2023/01/26 05:08:12;;;;;;;114.53;35.55;;;1.20;99.90;;;;;;5124136;27;20215;-82
2023/01/26 05:10:38;;;;;;;109.07;37.53;;;1.10;99.90;;;;;;5131948;28;20216;-81
2023/01/26 05:13:05;;;;;;;102.45;35.30;;;1.20;99.90;;;;;;5132453;27;20208;-82
2023/01/26 05:15:32;;;;;;;91.55;30.55;;;1.20;99.90;;;;;;5140766;27;20224;-81
2023/01/26 05:17:59;;;;;;;94.28;31.90;;;1.30;99.90;;;;;;5136084;27;20215;-82
2023/01/26 05:20:27;;;;;;;100.57;34.35;;;1.30;99.90;;;;;;5131805;27;20223;-83
2023/01/26 05:22:54;;;;;;;98.22;35.72;;;1.40;99.90;;;;;;5131887;27;20205;-82
2023/01/26 05:25:22;;;;;;;91.35;30.92;;;1.50;99.90;;;;;;5136979;28;20217;-82
2023/01/26 05:27:49;;;;;;;97.20;35.35;;;1.40;99.90;;;;;;5139016;27;20185;-81
2023/01/26 05:30:16;;;;;;;90.20;31.55;;;1.40;99.90;;;;;;5138335;27;20182;-82
2023/01/26 05:32:43;;;;;;;96.07;32.47;;;1.30;99.90;;;;;;5138283;28;20216;-81
2023/01/26 05:35:11;;;;;;;80.90;28.92;;;1.30;99.90;;;;;;5144752;27;20222;-81
2023/01/26 05:37:38;;;;;;;92.55;32.35;;;1.40;99.90;;;;;;5127151;28;20205;-82
2023/01/26 05:40:06;;;;;;;86.20;31.70;;;1.40;99.90;;;;;;5139121;27;20305;-81
2023/01/26 05:42:34;;;;;;;98.07;34.50;;;1.30;99.90;;;;;;5129446;28;20201;-82
2023/01/26 05:45:01;;;;;;;83.43;31.25;;;1.40;99.90;;;;;;5135205;27;20197;-82
2023/01/26 05:47:28;;;;;;;94.93;29.88;;;1.50;99.90;;;;;;5132887;28;20263;-81
2023/01/26 05:49:54;;;;;;;92.13;30.85;;;1.40;99.90;;;;;;5138970;28;20185;-81
2023/01/26 05:52:24;;;;;;;91.28;28.60;;;1.30;99.90;;;;;;5138654;27;20225;-82
2023/01/26 05:54:51;;;;;;;91.43;28.67;;;1.30;99.90;;;;;;5132745;27;20217;-83
2023/01/26 05:57:18;;;;;;;95.75;32.80;;;1.30;99.90;;;;;;5131796;28;20268;-81
2023/01/26 05:59:46;;;;;;;87.70;30.00;;;1.30;99.90;;;;;;5141412;27;20296;-81
2023/01/26 06:02:13;;;;;;;77.82;29.17;;;1.40;99.90;;;;;;5143261;27;20204;-81
2023/01/26 06:04:40;;;;;;;98.22;32.25;;;1.40;99.90;;;;;;5136944;27;20235;-82
2023/01/26 06:07:07;;;;;;;97.55;32.80;;;1.30;99.90;;;;;;5139770;27;20247;-82
2023/01/26 06:09:35;;;;;;;95.57;30.45;;;1.30;99.90;;;;;;5138743;27;20204;-82
2023/01/26 06:12:02;;;;;;;81.18;26.75;;;1.40;99.90;;;;;;5139502;27;20184;-84
2023/01/26 06:14:29;;;;;;;87.90;31.90;;;1.40;99.90;;;;;;5139382;27;20277;-84
2023/01/26 06:16:57;;;;;;;87.75;27.73;;;1.30;99.90;;;;;;5137730;28;20196;-82
2023/01/26 06:19:24;;;;;;;73.30;28.17;;;1.30;99.90;;;;;;5136434;28;20218;-82
2023/01/26 06:21:52;;;;;;;73.53;27.40;;;1.40;99.90;;;;;;5134104;28;20240;-82
2023/01/26 06:24:19;;;;;;;80.68;28.80;;;1.30;99.90;;;;;;5137835;27;20231;-82
2023/01/26 06:26:48;;;;;;;78.97;26.92;;;1.40;99.90;;;;;;5136598;27;20203;-83
2023/01/26 06:29:15;;;;;;;66.50;25.50;;;1.40;99.90;;;;;;5136458;28;20205;-83
2023/01/26 06:31:43;;;;;;;77.68;25.75;;;1.40;99.90;;;;;;5140965;28;20218;-83
2023/01/26 06:34:11;;;;;;;56.63;21.05;;;1.40;99.90;;;;;;5137286;28;20225;-82
2023/01/26 06:36:39;;;;;;;73.90;25.17;;;1.40;99.90;;;;;;5135035;28;20255;-82
2023/01/26 06:39:07;;;;;;;68.15;23.83;;;1.40;99.90;;;;;;5137888;27;20257;-83
2023/01/26 06:41:52;;;;;;;58.85;23.75;;;1.40;99.90;;;;;;5139675;27;20224;-81
2023/01/26 06:44:19;;;;;;;60.65;22.67;;;1.50;99.90;;;;;;5148065;27;20215;-83
2023/01/26 06:46:46;;;;;;;52.53;21.98;;;1.60;99.90;;;;;;5142841;27;20189;-82
2023/01/26 06:49:15;;;;;;;63.63;22.48;;;1.60;99.90;;;;;;5143246;27;20186;-83
2023/01/26 06:51:52;;;;;;;58.63;24.38;;;1.70;99.90;;;;;;5143736;27;20189;-83
2023/01/26 06:57:42;;;;;;;44.42;19.40;;;1.70;99.90;;;;;;5145602;27;20257;-82
2023/01/26 07:00:12;;;;;;;48.25;22.40;;;1.70;99.90;;;;;;5131698;27;20254;-85
2023/01/26 07:02:42;;;;;;;43.85;19.90;;;1.70;99.90;;;;;;5123115;28;20188;-85
2023/01/26 07:05:19;;;;;;;50.05;18.88;;;1.70;99.90;;;;;;5137721;28;20201;-86
2023/01/26 07:07:46;;;;;;;52.90;21.23;;;1.60;99.90;;;;;;5139721;28;20191;-85
2023/01/26 07:10:16;;;;;;;44.83;21.40;;;1.80;99.90;;;;;;5141065;27;20193;-87
2023/01/26 07:12:45;;;;;;;54.58;20.42;;;1.80;99.90;;;;;;5123229;22;20328;-77
2023/01/26 07:15:13;;;;;;;44.25;18.52;;;1.60;99.90;;;;;;5101712;28;20253;-78
2023/01/26 07:17:40;;;;;;;47.50;18.63;;;1.60;99.90;;;;;;5090330;28;20222;-77
2023/01/26 07:20:07;;;;;;;52.58;19.67;;;1.50;99.90;;;;;;5088951;28;20284;-79
2023/01/26 07:22:36;;;;;;;46.20;18.92;;;1.60;99.90;;;;;;5092198;28;20226;-78
2023/01/26 07:25:03;;;;;;;46.95;21.30;;;1.60;99.90;;;;;;5087686;28;20230;-76
2023/01/26 07:27:30;;;;;;;40.45;19.85;;;1.70;99.90;;;;;;5088207;28;20556;-83
2023/01/26 07:29:56;;;;;;;40.58;17.65;;;1.80;99.90;;;;;;5094350;28;20679;-79
2023/01/26 07:32:24;;;;;;;44.15;19.95;;;1.80;99.90;;;;;;5096456;28;20315;-80
2023/01/26 07:34:51;;;;;;;45.20;20.58;;;1.80;99.90;;;;;;5094162;28;20245;-81
2023/01/26 07:37:19;;;;;;;42.40;19.50;;;1.80;99.90;;;;;;5093811;28;20206;-80
2023/01/26 07:39:48;;;;;;;44.75;19.20;;;1.80;99.90;;;;;;5095709;28;20202;-78
2023/01/26 07:42:15;;;;;;;48.55;19.55;;;1.90;99.90;;;;;;5093286;28;20217;-79
2023/01/26 07:44:42;;;;;;;47.50;19.15;;;1.80;99.90;;;;;;5095598;28;20194;-77
2023/01/26 07:47:09;;;;;;;49.13;19.20;;;1.80;99.90;;;;;;5091003;28;20281;-77
2023/01/26 07:49:36;;;;;;;54.28;21.05;;;1.80;99.90;;;;;;5086834;28;20285;-77
2023/01/26 07:52:04;;;;;;;45.58;20.27;;;1.80;99.90;;;;;;5087444;28;20198;-77
2023/01/26 07:54:31;;;;;;;47.25;20.63;;;1.90;99.90;;;;;;5088560;28;20237;-77
2023/01/26 07:56:59;;;;;;;61.13;22.92;;;2.10;99.90;;;;;;5087892;28;20271;-77
2023/01/26 07:59:26;;;;;;;57.15;24.95;;;2.00;99.90;;;;;;5097526;28;20285;-77
2023/01/26 08:01:53;;;;;;;61.55;23.23;;;2.00;99.90;;;;;;5093058;28;20219;-76
2023/01/26 08:04:20;;;;;;;53.50;24.73;;;2.10;99.90;;;;;;5095461;28;20305;-78
2023/01/26 08:06:48;;;;;;;51.15;21.83;;;1.90;99.90;;;;;;5092205;28;20277;-78
2023/01/26 08:09:15;;;;;;;52.45;21.85;;;1.90;99.90;;;;;;5091703;28;20259;-76
2023/01/26 08:11:42;;;;;;;43.95;21.55;;;2.00;99.90;;;;;;5093692;28;20245;-78
2023/01/26 08:14:10;;;;;;;44.15;21.08;;;2.00;99.90;;;;;;5096297;28;20226;-77
2023/01/26 08:16:37;;;;;;;49.17;18.85;;;2.00;99.90;;;;;;5094077;28;20249;-79
2023/01/26 08:19:04;;;;;;;43.28;17.70;;;2.00;99.90;;;;;;5090775;28;20281;-77
2023/01/26 08:21:31;;;;;;;49.78;20.35;;;2.00;99.90;;;;;;5094097;28;20253;-76
2023/01/26 08:24:00;;;;;;;39.17;17.80;;;1.90;99.90;;;;;;5093842;28;20289;-76
2023/01/26 08:26:28;;;;;;;48.30;21.25;;;2.00;99.90;;;;;;5093241;28;20218;-77
2023/01/26 08:28:55;;;;;;;42.28;20.10;;;2.10;99.90;;;;;;5087860;28;20210;-77
2023/01/26 08:31:24;;;;;;;40.95;19.80;;;2.30;99.90;;;;;;5089677;28;20249;-76
2023/01/26 08:33:53;;;;;;;42.58;20.35;;;2.30;99.90;;;;;;5096864;28;20203;-76
2023/01/26 08:36:20;;;;;;;39.22;18.80;;;2.40;99.90;;;;;;5094832;28;20280;-78
2023/01/26 08:38:47;;;;;;;45.20;21.02;;;2.50;99.90;;;;;;5092421;28;20601;-77
2023/01/26 08:41:14;;;;;;;36.80;18.88;;;2.40;99.90;;;;;;5093359;28;20254;-78
2023/01/26 08:43:41;;;;;;;41.85;19.67;;;2.40;99.90;;;;;;5092241;28;20234;-76
2023/01/26 08:46:08;;;;;;;35.70;17.80;;;2.40;99.90;;;;;;5096292;28;20246;-77
2023/01/26 08:48:37;;;;;;;39.17;20.25;;;2.30;99.90;;;;;;5097649;28;20279;-75
2023/01/26 08:51:06;;;;;;;45.15;19.23;;;2.30;99.90;;;;;;5080944;28;20259;-79
2023/01/26 08:53:34;;;;;;;59.72;21.67;;;2.40;99.90;;;;;;5085955;28;20237;-77
2023/01/26 08:56:10;;;;;;;48.17;20.75;;;2.30;99.90;;;;;;5088840;28;20258;-78
2023/01/26 08:58:37;;;;;;;40.28;19.92;;;2.20;99.90;;;;;;5082081;28;20286;-78
2023/01/26 09:01:05;;;;;;;39.90;19.27;;;2.20;99.90;;;;;;5090587;28;20226;-77
2023/01/26 09:03:32;;;;;;;41.35;17.23;;;2.30;99.90;;;;;;5093928;28;20297;-75
2023/01/26 09:06:03;;;;;;;36.42;18.05;;;2.30;99.90;;;;;;5084260;28;20258;-77
2023/01/26 09:08:30;;;;;;;45.65;19.48;;;2.20;99.90;;;;;;5088284;28;20576;-76
2023/01/26 09:11:05;;;;;;;62.15;23.65;;;2.20;99.90;;;;;;5090375;28;20210;-77
2023/01/26 09:13:32;;;;;;;52.72;23.13;;;2.20;99.90;;;;;;5088425;28;20297;-78
2023/01/26 09:16:02;;;;;;;49.63;20.55;;;2.30;99.90;;;;;;5089460;28;20233;-78
2023/01/26 09:18:29;;;;;;;52.92;18.92;;;2.30;99.90;;;;;;5090533;28;20286;-76
2023/01/26 09:21:04;;;;;;;49.88;21.60;;;2.30;99.90;;;;;;5082970;28;20203;-77
2023/01/26 09:23:32;;;;;;;60.72;19.80;;;2.30;99.90;;;;;;5090011;28;20276;-75
2023/01/26 09:25:59;;;;;;;55.88;21.30;;;2.30;99.90;;;;;;5089489;28;20226;-77
2023/01/26 09:28:26;;;;;;;59.42;22.23;;;2.30;99.90;;;;;;5091382;28;20212;-78
2023/01/26 09:30:53;;;;;;;42.67;18.25;;;2.20;99.90;;;;;;5081195;28;20238;-79
2023/01/26 09:50:25;;;;;;;41.35;18.38;;;2.60;99.90;;;;;;5056462;28;20702;-85
2023/01/26 09:53:04;;;;;;;41.65;19.30;;;2.70;99.90;;;;;;5071044;28;20195;-85
2023/01/26 10:02:50;;;;;;;45.97;18.73;;;3.00;99.90;;;;;;5075284;28;20214;-85
2023/01/26 10:05:35;;;;;;;46.33;20.75;;;3.30;99.90;;;;;;5075064;28;20611;-85
2023/01/26 10:09:11;;;;;;;54.80;24.58;;;3.30;99.90;;;;;;5062754;28;20208;-84
2023/01/26 10:16:23;;;;;;;99.82;25.00;;;3.90;99.90;;;;;;4997292;28;20282;-84
2023/01/26 10:25:27;;;;;;;70.63;25.90;;;3.30;99.90;;;;;;5112383;22;20234;-78
2023/01/26 10:27:54;;;;;;;59.63;20.67;;;3.30;99.90;;;;;;5084687;28;20285;-77
2023/01/26 10:30:23;;;;;;;87.70;26.38;;;3.30;99.90;;;;;;5092277;28;20209;-78
2023/01/26 10:32:52;;;;;;;64.50;25.10;;;3.40;99.90;;;;;;5082539;28;20584;-77
2023/01/26 10:35:21;;;;;;;58.15;21.98;;;3.40;99.90;;;;;;5081661;28;20246;-76
2023/01/26 10:37:51;;;;;;;78.32;24.70;;;3.50;99.90;;;;;;5088578;28;20639;-77
2023/01/26 10:40:20;;;;;;;91.05;28.58;;;3.60;99.90;;;;;;5102519;28;20212;-77
2023/01/26 10:42:56;;;;;;;97.85;25.75;;;3.50;99.90;;;;;;5088625;28;20226;-76
2023/01/26 10:45:26;;;;;;;98.50;27.05;;;3.60;99.90;;;;;;5091967;28;20308;-79
2023/01/26 10:48:17;;;;;;;92.55;30.15;;;3.60;99.90;;;;;;5086520;28;20203;-79
2023/01/26 10:50:43;;;;;;;99.53;27.42;;;3.60;99.90;;;;;;5082486;28;20275;-79
2023/01/26 10:53:16;;;;;;;67.70;25.75;;;3.60;99.90;;;;;;5086513;28;20262;-79
2023/01/26 10:55:57;;;;;;;67.50;25.45;;;3.60;99.90;;;;;;5086198;28;20222;-79
2023/01/26 10:58:50;;;;;;;87.50;26.25;;;3.60;99.90;;;;;;5090061;28;20210;-77
2023/01/26 11:01:21;;;;;;;58.40;22.55;;;3.80;99.90;;;;;;5084662;28;20312;-78
2023/01/26 11:04:06;;;;;;;64.07;27.40;;;3.90;99.90;;;;;;5087198;28;20198;-79
2023/01/26 11:06:34;;;;;;;75.90;27.15;;;4.00;99.90;;;;;;5092062;28;20220;-78
2023/01/26 11:09:16;;;;;;;68.20;24.20;;;4.20;99.90;;;;;;5090423;28;20288;-79
2023/01/26 11:11:56;;;;;;;100.93;25.83;;;4.20;99.90;;;;;;5093303;28;20255;-78
2023/01/26 11:14:23;;;;;;;74.05;26.02;;;4.20;99.90;;;;;;5093485;28;20312;-78
2023/01/26 11:16:53;;;;;;;88.55;23.95;;;4.20;99.90;;;;;;5092682;28;20226;-80
2023/01/26 11:19:57;;;;;;;65.97;23.98;;;4.20;99.90;;;;;;5093250;28;20753;-78
2023/01/26 11:22:28;;;;;;;77.32;26.88;;;4.30;99.90;;;;;;5074629;28;20240;-78
2023/01/26 11:25:05;;;;;;;70.55;22.70;;;4.30;99.90;;;;;;5092454;28;20601;-79
2023/01/26 11:27:43;;;;;;;78.57;24.40;;;4.30;99.90;;;;;;5092466;28;20251;-78
2023/01/26 11:30:40;;;;;;;70.97;22.75;;;4.40;99.90;;;;;;5074549;28;20206;-78
2023/01/26 11:33:17;;;;;;;72.82;26.40;;;4.40;99.90;;;;;;5092586;28;20198;-79
2023/01/26 11:35:52;;;;;;;67.85;23.73;;;4.50;99.90;;;;;;5074477;28;20641;-79
2023/01/26 11:38:46;;;;;;;64.45;21.75;;;4.60;99.90;;;;;;5075999;28;20265;-78
2023/01/26 11:41:27;;;;;;;59.47;22.00;;;4.60;99.90;;;;;;5084002;28;20225;-78
2023/01/26 11:44:10;;;;;;;72.70;23.65;;;4.70;99.90;;;;;;5091538;28;20657;-78
2023/01/26 11:46:58;;;;;;;86.50;26.67;;;4.80;99.90;;;;;;5071926;28;20383;-79
2023/01/26 11:49:41;;;;;;;75.68;24.65;;;4.80;99.90;;;;;;5088601;28;20230;-77
2023/01/26 11:52:19;;;;;;;88.70;27.70;;;4.80;99.90;;;;;;5071840;28;20735;-79
2023/01/26 11:55:06;;;;;;;63.00;22.50;;;4.80;99.90;;;;;;5081867;28;20283;-79
2023/01/26 11:57:41;;;;;;;66.55;22.73;;;4.80;99.90;;;;;;5067044;28;20207;-80
2023/01/26 12:00:17;;;;;;;60.38;23.52;;;4.90;99.90;;;;;;5067159;28;20215;-79
2023/01/26 12:02:49;;;;;;;66.75;22.67;;;5.00;99.90;;;;;;5075337;28;20223;-81
2023/01/26 12:05:20;;;;;;;62.15;21.95;;;5.00;99.90;;;;;;5088255;28;20318;-79
2023/01/26 12:08:11;;;;;;;63.50;20.58;;;5.10;99.90;;;;;;5099841;28;20207;-81
2023/01/26 12:10:43;;;;;;;48.10;20.05;;;5.20;99.90;;;;;;5096729;28;20294;-79
2023/01/26 12:13:19;;;;;;;64.78;21.60;;;5.20;99.90;;;;;;5095287;28;21027;-78
2023/01/26 12:15:53;;;;;;;57.25;20.20;;;5.20;99.90;;;;;;5096392;28;20353;-79
2023/01/26 12:18:24;;;;;;;47.70;18.88;;;5.30;99.90;;;;;;5077600;28;20234;-79
2023/01/26 12:20:55;;;;;;;64.50;21.55;;;5.30;99.90;;;;;;5096009;28;20286;-79
2023/01/26 12:23:29;;;;;;;42.05;17.63;;;5.30;99.90;;;;;;5100574;28;20219;-80
2023/01/26 12:26:00;;;;;;;56.05;20.63;;;5.40;99.90;;;;;;5096031;28;20268;-77
2023/01/26 12:28:32;;;;;;;64.60;18.02;;;5.50;99.90;;;;;;5095366;28;20211;-78
2023/01/26 12:31:06;;;;;;;45.40;18.90;;;5.50;99.90;;;;;;5095820;28;20249;-80
2023/01/26 12:33:34;;;;;;;54.40;22.02;;;5.50;99.90;;;;;;5077494;28;20204;-79
2023/01/26 12:36:16;;;;;;;68.32;21.30;;;5.50;99.90;;;;;;5095379;28;20254;-78
2023/01/26 12:38:55;;;;;;;55.75;21.88;;;5.60;99.90;;;;;;5104355;28;20243;-78
2023/01/26 12:41:35;;;;;;;49.17;17.45;;;5.70;99.90;;;;;;5094753;28;20258;-78
2023/01/26 12:44:16;;;;;;;58.35;19.42;;;5.80;99.90;;;;;;5076351;28;20296;-78
2023/01/26 12:46:47;;;;;;;45.45;18.88;;;5.90;99.90;;;;;;5068321;28;20224;-80
2023/01/26 12:49:21;;;;;;;53.47;17.45;;;6.00;99.90;;;;;;5088583;28;20227;-78
2023/01/26 12:51:53;;;;;;;44.65;16.85;;;6.10;99.90;;;;;;5087884;28;20289;-78
2023/01/26 12:54:31;;;;;;;40.22;18.17;;;6.30;99.90;;;;;;5093339;28;20233;-76
2023/01/26 12:57:01;;;;;;;47.90;17.95;;;6.40;99.90;;;;;;5091512;28;20214;-79
2023/01/26 12:59:32;;;;;;;42.25;17.05;;;6.40;99.90;;;;;;5092243;28;20566;-79
2023/01/26 13:02:09;;;;;;;39.55;16.08;;;6.40;99.90;;;;;;5089382;28;20251;-79
2023/01/26 13:04:37;;;;;;;45.53;15.63;;;6.40;99.90;;;;;;5093510;28;20198;-80
2023/01/26 13:07:24;;;;;;;38.67;14.40;;;6.40;99.90;;;;;;5085881;28;20570;-79
2023/01/26 13:10:19;;;;;;;44.25;16.00;;;6.60;99.90;;;;;;5092802;28;20264;-78
2023/01/26 13:12:48;;;;;;;30.42;12.60;;;6.70;99.90;;;;;;5095725;28;20264;-79
2023/01/26 13:15:16;;;;;;;29.67;13.00;;;6.80;99.90;;;;;;5094677;28;20214;-79
2023/01/26 13:17:53;;;;;;;28.55;14.57;;;6.70;99.90;;;;;;5088848;28;20229;-79
2023/01/26 13:20:43;;;;;;;41.10;15.30;;;6.70;99.90;;;;;;5092806;28;20203;-78
2023/01/26 13:23:39;;;;;;;34.30;13.52;;;6.80;99.90;;;;;;5100419;28;20735;-79
2023/01/26 13:26:51;;;;;;;32.83;16.67;;;6.80;99.90;;;;;;5091965;28;20244;-79
2023/01/26 13:29:34;;;;;;;50.88;16.02;;;6.80;99.90;;;;;;5093954;28;20205;-78
2023/01/26 13:32:35;;;;;;;36.28;16.00;;;6.70;99.90;;;;;;5092247;28;20281;-79
2023/01/26 13:35:09;;;;;;;43.80;15.90;;;6.70;99.90;;;;;;5079953;28;20226;-78
2023/01/26 13:37:46;;;;;;;34.00;12.95;;;6.70;99.90;;;;;;5099195;28;20201;-78
2023/01/26 13:40:18;;;;;;;48.88;14.23;;;6.80;99.90;;;;;;5079369;28;20622;-80
2023/01/26 13:42:52;;;;;;;35.25;12.80;;;6.80;99.90;;;;;;5090621;28;20221;-79
2023/01/26 13:45:28;;;;;;;34.75;13.45;;;6.80;99.90;;;;;;5095526;28;20222;-79
2023/01/26 13:47:57;;;;;;;30.73;14.23;;;6.90;99.90;;;;;;5071919;28;20202;-79
2023/01/26 13:50:31;;;;;;;33.20;12.57;;;6.90;99.90;;;;;;5094052;28;20251;-78
2023/01/26 13:52:58;;;;;;;33.30;14.40;;;6.90;99.90;;;;;;5094202;28;20220;-79
2023/01/26 13:55:28;;;;;;;31.17;12.40;;;6.90;99.90;;;;;;5093922;28;20218;-81
2023/01/26 13:58:10;;;;;;;33.22;15.75;;;7.00;99.90;;;;;;5093558;28;20285;-81
2023/01/26 14:00:38;;;;;;;40.78;17.75;;;7.00;99.90;;;;;;5094926;28;20210;-80
2023/01/26 14:03:05;;;;;;;36.75;16.33;;;7.00;99.90;;;;;;5093863;28;20221;-79
2023/01/26 14:05:35;;;;;;;48.15;19.38;;;7.00;99.90;;;;;;5094071;28;20225;-80
2023/01/26 14:08:03;;;;;;;43.33;17.35;;;7.00;99.90;;;;;;5093777;28;20217;-79
2023/01/26 14:10:31;;;;;;;44.25;16.80;;;7.00;99.90;;;;;;5093766;28;20195;-81
2023/01/26 14:13:00;;;;;;;47.30;16.55;;;7.00;99.90;;;;;;5093975;28;20289;-79
2023/01/26 14:15:29;;;;;;;42.10;16.83;;;7.00;99.90;;;;;;5091431;28;20232;-78
2023/01/26 14:17:58;;;;;;;35.60;16.00;;;7.00;99.90;;;;;;5100987;28;20244;-79
2023/01/26 14:20:27;;;;;;;44.72;20.40;;;7.00;99.90;;;;;;5094023;28;20281;-79
2023/01/26 14:23:13;;;;;;;33.03;14.38;;;7.00;99.90;;;;;;5094024;28;20221;-78
2023/01/26 14:25:41;;;;;;;32.42;16.10;;;7.00;99.90;;;;;;5081562;28;20233;-80
2023/01/26 14:28:15;;;;;;;34.42;15.07;;;7.00;99.90;;;;;;5093057;28;20194;-79
2023/01/26 14:30:42;;;;;;;36.67;16.30;;;7.00;99.90;;;;;;5093829;28;20209;-82
2023/01/26 14:33:13;;;;;;;36.67;14.48;;;7.10;99.90;;;;;;5093439;28;20202;-78
2023/01/26 14:35:41;;;;;;;33.00;15.70;;;7.10;99.90;;;;;;5093158;28;20779;-82